Map

Track Data

SID SEASON NUMBER BASIN SUBBASIN NAME ISO_TIME NATURE LAT LON WMO_WIND WMO_PRES WMO_AGENCY TRACK_TYPE DIST2LAND LANDFALL IFLAG USA_AGENCY USA_ATCF_ID USA_LAT USA_LON USA_RECORD USA_STATUS USA_WIND USA_PRES USA_SSHS USA_R34_NE USA_R34_SE USA_R34_SW USA_R34_NW USA_R50_NE USA_R50_SE USA_R50_SW USA_R50_NW USA_R64_NE USA_R64_SE USA_R64_SW USA_R64_NW USA_POCI USA_ROCI USA_RMW USA_EYE TOKYO_LAT TOKYO_LON TOKYO_GRADE TOKYO_WIND TOKYO_PRES TOKYO_R50_DIR TOKYO_R50_LONG TOKYO_R50_SHORT TOKYO_R30_DIR TOKYO_R30_LONG TOKYO_R30_SHORT TOKYO_LAND CMA_LAT CMA_LON CMA_CAT CMA_WIND CMA_PRES HKO_LAT HKO_LON HKO_CAT HKO_WIND HKO_PRES NEWDELHI_LAT NEWDELHI_LON NEWDELHI_GRADE NEWDELHI_WIND NEWDELHI_PRES NEWDELHI_CI NEWDELHI_DP NEWDELHI_POCI REUNION_LAT REUNION_LON REUNION_TYPE REUNION_WIND REUNION_PRES REUNION_TNUM REUNION_CI REUNION_RMW REUNION_R34_NE REUNION_R34_SE REUNION_R34_SW REUNION_R34_NW REUNION_R50_NE REUNION_R50_SE REUNION_R50_SW REUNION_R50_NW REUNION_R64_NE REUNION_R64_SE REUNION_R64_SW REUNION_R64_NW BOM_LAT BOM_LON BOM_TYPE BOM_WIND BOM_PRES BOM_TNUM BOM_CI BOM_RMW BOM_R34_NE BOM_R34_SE BOM_R34_SW BOM_R34_NW BOM_R50_NE BOM_R50_SE BOM_R50_SW BOM_R50_NW BOM_R64_NE BOM_R64_SE BOM_R64_SW BOM_R64_NW BOM_ROCI BOM_POCI BOM_EYE BOM_POS_METHOD BOM_PRES_METHOD NADI_LAT NADI_LON NADI_CAT NADI_WIND NADI_PRES WELLINGTON_LAT WELLINGTON_LON WELLINGTON_WIND WELLINGTON_PRES DS824_LAT DS824_LON DS824_STAGE DS824_WIND DS824_PRES TD9636_LAT TD9636_LON TD9636_STAGE TD9636_WIND TD9636_PRES TD9635_LAT TD9635_LON TD9635_WIND TD9635_PRES TD9635_ROCI NEUMANN_LAT NEUMANN_LON NEUMANN_CLASS NEUMANN_WIND NEUMANN_PRES MLC_LAT MLC_LON MLC_CLASS MLC_WIND MLC_PRES USA_GUST BOM_GUST BOM_GUST_PER REUNION_GUST REUNION_GUST_PER USA_SEAHGT USA_SEARAD_NE USA_SEARAD_SE USA_SEARAD_SW USA_SEARAD_NW STORM_SPEED STORM_DIR
1974234N11214 1974 83 EP CP OLIVE 1974-08-21 12:00:00 NR 10.7000 -146.500 20 cphc main 1326 1287 O_____________ cphc 10.7000 -146.500 20 -1 8 310
1974234N11214 1974 83 EP CP OLIVE 1974-08-21 15:00:00 NR 10.9476 -146.800 main 1287 1240 P_____________ 10.9526 -146.805 20 -1 8 310
1974234N11214 1974 83 EP CP OLIVE 1974-08-21 18:00:00 NR 11.2000 -147.100 20 cphc main 1240 1202 O_____________ cphc 11.2000 -147.100 20 -1 8 311
1974234N11214 1974 83 EP CP OLIVE 1974-08-21 21:00:00 NR 11.4575 -147.400 main 1193 1155 P_____________ 11.4424 -147.385 22 -1 8 310
1974234N11214 1974 83 EP CP OLIVE 1974-08-22 00:00:00 TS 11.7000 -147.700 25 hurdat_epa main 1155 1108 O________O____ hurdat_epa CP011974 11.7000 -147.700 TD 25 -1 11.7000 -147.700 TC 25 8 310
1974234N11214 1974 83 EP CP OLIVE 1974-08-22 03:00:00 TS 11.9967 -148.066 main 1101 1062 P________P____ CP011974 12.0225 -148.085 TD 25 -1 12.0451 -148.100 TC 25 9 307
1974234N11214 1974 83 EP CP OLIVE 1974-08-22 06:00:00 TS 12.2500 -148.450 25 hurdat_epa main 1054 1017 O________O____ hurdat_epa CP011974 12.3000 -148.500 TD 25 -1 12.3000 -148.500 TC 25 9 298
1974234N11214 1974 83 EP CP OLIVE 1974-08-22 09:00:00 TS 12.4034 -148.837 main 1017 981 P________P____ CP011974 12.4149 -148.900 TD 25 -1 12.4149 -148.900 TC 25 8 290
1974234N11214 1974 83 EP CP OLIVE 1974-08-22 12:00:00 TS 12.5200 -149.220 25 hurdat_epa main 981 937 O________O____ hurdat_epa CP011974 12.5000 -149.300 TD 25 -1 12.5000 -149.300 TC 25 8 292
1974234N11214 1974 83 EP CP OLIVE 1974-08-22 15:00:00 TS 12.7145 -149.626 main 937 893 P________P____ CP011974 12.7000 -149.715 TD 25 -1 12.7000 -149.715 TC 25 9 296
1974234N11214 1974 83 EP CP OLIVE 1974-08-22 18:00:00 TS 12.9000 -150.020 25 hurdat_epa main 893 865 O________O____ hurdat_epa CP011974 12.9000 -150.100 TD 25 -1 12.9000 -150.100 TC 25 8 293
1974234N11214 1974 83 EP CP OLIVE 1974-08-22 21:00:00 TS 13.0132 -150.332 main 865 831 P________P____ CP011974 13.0147 -150.370 TD 27 -1 13.0147 -150.370 TC 27 7 287
1974234N11214 1974 83 EP CP OLIVE 1974-08-23 00:00:00 TS 13.1000 -150.700 30 hurdat_epa main 831 794 O________O____ hurdat_epa CP011974 13.1000 -150.700 TD 30 -1 13.1000 -150.700 TC 30 9 282
1974234N11214 1974 83 EP CP OLIVE 1974-08-23 03:00:00 TS 13.2001 -151.259 main 788 752 P________P____ CP011974 13.2002 -151.262 TD 30 -1 13.2002 -151.262 TC 30 12 280
1974234N11214 1974 83 EP CP OLIVE 1974-08-23 06:00:00 TS 13.3000 -151.880 30 hurdat_epa main 746 709 O________O____ hurdat_epa CP011974 13.3000 -151.900 TD 30 -1 13.3000 -151.900 TC 30 12 280
1974234N11214 1974 83 EP CP OLIVE 1974-08-23 09:00:00 TS 13.4058 -152.427 main 709 674 P________P____ CP011974 13.4073 -152.450 TD 35 0 13.4073 -152.450 TC 35 11 281
1974234N11214 1974 83 EP CP OLIVE 1974-08-23 12:00:00 TS 13.5000 -152.980 40 hurdat_epa main 669 637 O________O____ hurdat_epa CP011974 13.5000 -153.000 TS 40 0 13.5000 -153.000 TC 40 11 278
1974234N11214 1974 83 EP CP OLIVE 1974-08-23 15:00:00 TS 13.5599 -153.583 main 634 614 P________P____ CP011974 13.5499 -153.593 TS 40 0 13.5499 -153.593 TC 40 12 276
1974234N11214 1974 83 EP CP OLIVE 1974-08-23 18:00:00 TS 13.6200 -154.200 40 hurdat_epa main 614 589 O________O____ hurdat_epa CP011974 13.6000 -154.200 TS 40 0 13.6000 -154.200 TC 40 12 277
1974234N11214 1974 83 EP CP OLIVE 1974-08-23 21:00:00 TS 13.7003 -154.794 main 589 571 P________P____ CP011974 13.6773 -154.793 TS 40 0 13.6773 -154.793 TC 40 12 280
1974234N11214 1974 83 EP CP OLIVE 1974-08-24 00:00:00 TS 13.8200 -155.400 40 hurdat_epa main 571 548 O________O____ hurdat_epa CP011974 13.8000 -155.400 TS 40 0 13.8000 -155.400 TC 40 13 285
1974234N11214 1974 83 EP CP OLIVE 1974-08-24 03:00:00 TS 14.0144 -156.042 main 549 532 P________P____ CP011974 14.0074 -156.042 TS 35 0 14.0074 -156.042 TC 35 13 287
1974234N11214 1974 83 EP CP OLIVE 1974-08-24 06:00:00 TS 14.2000 -156.700 30 hurdat_epa main 536 533 O________O____ hurdat_epa CP011974 14.2000 -156.700 TD 30 -1 14.2000 -156.700 TC 30 13 282
1974234N11214 1974 83 EP CP OLIVE 1974-08-24 09:00:00 TS 14.2848 -157.350 main 545 545 P________P____ CP011974 14.2648 -157.350 TD 30 -1 14.2648 -157.350 TC 30 13 276
1974234N11214 1974 83 EP CP OLIVE 1974-08-24 12:00:00 TS 14.3400 -158.000 30 hurdat_epa main 570 564 O________O____ hurdat_epa CP011974 14.3000 -158.000 TD 30 -1 14.3000 -158.000 TC 30 13 277
1974234N11214 1974 83 EP CP OLIVE 1974-08-24 15:00:00 TS 14.4344 -158.656 main 596 592 P________P____ CP011974 14.3999 -158.657 TD 30 -1 14.3999 -158.657 TC 30 13 278
1974234N11214 1974 83 EP CP OLIVE 1974-08-24 18:00:00 TS 14.5200 -159.300 30 hurdat_epa main 624 624 O________O____ hurdat_epa CP011974 14.5000 -159.300 TD 30 -1 14.5000 -159.300 TC 30 12 277
1974234N11214 1974 83 EP CP OLIVE 1974-08-24 21:00:00 TS 14.5733 -159.912 main 656 656 P________P____ CP011974 14.5647 -159.900 TD 30 -1 14.5647 -159.900 TC 30 12 274
1974234N11214 1974 83 EP CP OLIVE 1974-08-25 00:00:00 TS 14.6000 -160.520 30 hurdat_epa main 701 701 O________O____ hurdat_epa CP011974 14.6000 -160.500 TD 30 -1 14.6000 -160.500 TC 30 12 272
1974234N11214 1974 83 EP CP OLIVE 1974-08-25 03:00:00 TS 14.6134 -161.160 main 756 756 P________P____ CP011974 14.6149 -161.150 TD 30 -1 14.6149 -161.150 TC 30 12 270
1974234N11214 1974 83 EP CP OLIVE 1974-08-25 06:00:00 TS 14.6000 -161.800 30 hurdat_epa main 804 804 O________O____ hurdat_epa CP011974 14.6000 -161.800 TD 30 -1 14.6000 -161.800 TC 30 12 267
1974234N11214 1974 83 EP CP OLIVE 1974-08-25 09:00:00 TS 14.5572 -162.403 main 855 855 P________P____ CP011974 14.5572 -162.393 TD 27 -1 14.5572 -162.393 TC 27 12 265
1974234N11214 1974 83 EP CP OLIVE 1974-08-25 12:00:00 TS 14.5000 -163.020 25 hurdat_epa main 904 904 O________O____ hurdat_epa CP011974 14.5000 -163.000 TD 25 -1 14.5000 -163.000 TC 25 13 265
1974234N11214 1974 83 EP CP OLIVE 1974-08-25 15:00:00 TS 14.4500 -163.712 main 934 934 P________P____ CP011974 14.4500 -163.700 TD 25 -1 14.4500 -163.700 TC 25 13 266
1974234N11214 1974 83 EP CP OLIVE 1974-08-25 18:00:00 TS 14.4000 -164.400 25 hurdat_epa main 979 979 O________O____ hurdat_epa CP011974 14.4000 -164.400 TD 25 -1 14.4000 -164.400 TC 25 13 265
1974234N11214 1974 83 EP CP OLIVE 1974-08-25 21:00:00 TS 14.3422 -165.014 main 1021 1021 P________P____ CP011974 14.3422 -165.015 TD 25 -1 14.3422 -165.015 TC 25 12 265
1974234N11214 1974 83 EP CP OLIVE 1974-08-26 00:00:00 TS 14.3000 -165.600 25 hurdat_epa main 1056 1056 O________O____ hurdat_epa CP011974 14.3000 -165.600 TD 25 -1 14.3000 -165.600 TC 25 11 267
1974234N11214 1974 83 EP CP OLIVE 1974-08-26 03:00:00 TS 14.2904 -166.195 main 1094 1094 P________P____ CP011974 14.2904 -166.195 TD 25 -1 14.2904 -166.195 TC 25 12 270
1974234N11214 1974 83 EP CP OLIVE 1974-08-26 06:00:00 TS 14.3000 -166.800 25 hurdat_epa main 1134 O________O____ hurdat_epa CP011974 14.3000 -166.800 TD 25 -1 14.3000 -166.800 TC 25 12 271

About IBTrACS Database

This database is a web-friendly format of International Best Track Archive for Climate Stewardship (IBTrACS), a global best track data archive curated by NOAA dating back to 1842.

Updated: 2021-12-03